Detroit, Michigan
Traffic Map
Current Weather Conditions
Detroit, Michigan
Clear
Clear

Feels Like: 7°
Wind Chill: Ceiling: Unl
Heat Index: Visibility: 15mi
Dew Point: Wind: 0mph
Humidity: 71% Direction: ° ()
Pressure: 30.22in Gusts: 0mph
Raw Report DataCYQG 200900Z 00000KT 15SM SKC 07/02 A3022 RMK SLP234
Traffic Incident Summary
Active as of:
Severity:
Category:
InformationThere was an issue retrieving the traffic information for this location. Please try a different location or try again shortly.
Advertisements